createdAt,value
2019-06-27T00:00:17.599Z,6.47
2019-06-27T00:03:24.566Z,6.30
2019-06-27T00:06:31.560Z,6.40
2019-06-27T00:09:38.664Z,5.50
2019-06-27T00:12:46.012Z,5.67
2019-06-27T00:15:52.994Z,5.10
2019-06-27T00:19:00.008Z,5.10
2019-06-27T00:22:06.962Z,4.63
2019-06-27T00:25:13.946Z,4.37
2019-06-27T00:28:20.938Z,5.03
2019-06-27T00:31:27.912Z,4.00
2019-06-27T00:34:34.905Z,3.80
2019-06-27T00:37:41.905Z,3.17
2019-06-27T00:40:48.898Z,2.90
2019-06-27T00:43:55.886Z,2.80
2019-06-27T00:47:02.932Z,2.90
2019-06-27T00:50:10.189Z,3.07
2019-06-27T00:53:17.186Z,3.20
2019-06-27T00:56:24.170Z,3.00
2019-06-27T00:59:31.119Z,3.13
2019-06-27T01:02:38.121Z,2.40
2019-06-27T01:05:45.131Z,2.07
2019-06-27T01:08:52.096Z,1.97
2019-06-27T01:11:59.100Z,2.00
2019-06-27T01:15:06.368Z,1.87
2019-06-27T01:18:13.336Z,1.70
2019-06-27T01:21:20.315Z,2.00
2019-06-27T01:24:27.281Z,2.07
2019-06-27T01:27:34.244Z,2.20
2019-06-27T01:30:41.218Z,2.10
2019-06-27T01:33:48.190Z,2.20
2019-06-27T01:36:55.167Z,2.40
2019-06-27T01:40:02.150Z,2.40
2019-06-27T01:43:09.162Z,2.30
2019-06-27T01:46:16.117Z,2.30
2019-06-27T01:49:23.093Z,2.33
2019-06-27T01:52:30.291Z,2.70
2019-06-27T01:55:37.254Z,2.43
2019-06-27T01:58:44.214Z,1.90
2019-06-27T02:01:51.190Z,2.40
2019-06-27T02:04:58.159Z,2.33
2019-06-27T02:08:05.243Z,2.07
2019-06-27T02:11:12.199Z,2.00
2019-06-27T02:14:19.214Z,2.03
2019-06-27T02:17:26.190Z,2.60
2019-06-27T02:20:33.172Z,2.57
2019-06-27T02:23:40.176Z,2.43
2019-06-27T02:26:47.159Z,2.40
2019-06-27T02:29:54.119Z,3.10
2019-06-27T02:33:01.132Z,3.00
2019-06-27T02:36:08.090Z,3.00
2019-06-27T02:39:15.084Z,2.80
2019-06-27T02:42:22.070Z,3.30
2019-06-27T02:45:31.502Z,2.83
2019-06-27T02:48:38.617Z,2.50
2019-06-27T02:51:45.627Z,2.60
2019-06-27T02:54:52.623Z,2.67
2019-06-27T02:57:59.639Z,2.40
2019-06-27T03:01:06.633Z,2.70
2019-06-27T03:04:13.601Z,2.90
2019-06-27T03:07:20.591Z,2.77
2019-06-27T03:10:27.959Z,3.03
2019-06-27T03:13:34.920Z,3.07
2019-06-27T03:16:42.006Z,2.70
2019-06-27T03:19:48.999Z,2.70
2019-06-27T03:22:55.980Z,3.63
2019-06-27T03:26:02.962Z,3.00
2019-06-27T03:29:09.956Z,2.70
2019-06-27T03:32:16.933Z,2.63
2019-06-27T03:35:23.943Z,3.17
2019-06-27T03:38:31.158Z,3.20
2019-06-27T03:41:38.098Z,3.70
2019-06-27T03:44:45.121Z,2.97
2019-06-27T03:47:52.069Z,3.10
2019-06-27T03:50:59.050Z,3.10
2019-06-27T03:54:06.075Z,3.83
2019-06-27T03:57:13.040Z,3.57
2019-06-27T04:00:26.898Z,3.53
2019-06-27T04:03:33.875Z,3.77
2019-06-27T04:06:40.848Z,3.03
2019-06-27T04:09:47.917Z,3.63
2019-06-27T04:12:54.926Z,3.43
2019-06-27T04:16:01.981Z,3.93
2019-06-27T04:19:09.175Z,3.40
2019-06-27T04:22:17.447Z,3.73
2019-06-27T04:25:24.800Z,4.10
2019-06-27T04:28:31.749Z,3.60
2019-06-27T04:31:38.786Z,3.80
2019-06-27T04:34:45.839Z,3.43
2019-06-27T04:37:54.145Z,4.00
2019-06-27T04:41:01.146Z,3.77
2019-06-27T04:44:08.177Z,4.07
2019-06-27T04:47:15.215Z,3.83
2019-06-27T04:50:22.221Z,4.63
2019-06-27T04:53:29.254Z,3.83
2019-06-27T04:56:36.273Z,4.47
2019-06-27T04:59:53.099Z,4.90
2019-06-27T05:02:51.870Z,4.60
2019-06-27T05:05:58.829Z,4.47
2019-06-27T05:09:05.932Z,4.40
2019-06-27T05:12:12.889Z,4.23
2019-06-27T05:15:19.868Z,4.47
2019-06-27T05:18:29.704Z,4.70
2019-06-27T05:21:36.700Z,4.43
2019-06-27T05:24:43.812Z,4.53
2019-06-27T05:27:50.823Z,5.13
2019-06-27T05:30:57.829Z,5.03
2019-06-27T05:34:04.867Z,4.90
2019-06-27T05:37:11.829Z,5.17
2019-06-27T05:40:19.532Z,4.70
2019-06-27T05:43:26.493Z,4.57
2019-06-27T05:46:33.569Z,4.70
2019-06-27T05:49:40.554Z,5.17
2019-06-27T05:52:47.561Z,4.40
2019-06-27T05:55:54.592Z,4.93
2019-06-27T05:59:01.615Z,4.63
2019-06-27T06:02:08.621Z,4.50
2019-06-27T06:05:15.576Z,4.70
2019-06-27T06:08:22.563Z,4.80
2019-06-27T06:11:29.569Z,4.03
2019-06-27T06:14:36.579Z,4.90
2019-06-27T06:17:43.574Z,4.17
2019-06-27T06:20:50.548Z,4.77
2019-06-27T06:24:00.955Z,4.60
2019-06-27T06:27:08.086Z,5.27
2019-06-27T06:30:15.140Z,4.80
2019-06-27T06:33:22.110Z,5.53
2019-06-27T06:36:29.101Z,4.50
2019-06-27T06:39:36.109Z,4.47
2019-06-27T06:42:43.173Z,4.60
2019-06-27T06:45:50.195Z,5.10
2019-06-27T06:48:57.194Z,5.47
2019-06-27T06:52:04.190Z,4.70
2019-06-27T06:55:11.297Z,4.73
2019-06-27T06:58:18.309Z,4.97
2019-06-27T07:01:28.254Z,5.20
2019-06-27T07:04:35.228Z,5.37
2019-06-27T07:07:42.227Z,6.83
2019-06-27T07:10:49.203Z,5.03
2019-06-27T07:13:56.191Z,4.70
2019-06-27T07:17:03.225Z,5.37
2019-06-27T07:20:10.626Z,5.30
2019-06-27T07:23:17.609Z,4.90
2019-06-27T07:26:24.598Z,5.47
2019-06-27T07:29:31.568Z,5.00
2019-06-27T07:32:38.530Z,5.60
2019-06-27T07:35:45.534Z,4.97
2019-06-27T07:38:52.537Z,5.57
2019-06-27T07:41:59.511Z,5.33
2019-06-27T07:45:06.774Z,5.27
2019-06-27T07:48:13.734Z,4.90
2019-06-27T07:51:20.834Z,5.07
2019-06-27T07:54:27.834Z,5.07
2019-06-27T07:57:34.810Z,5.67
2019-06-27T08:00:41.844Z,5.20
2019-06-27T08:03:48.874Z,4.73
2019-06-27T08:06:55.843Z,5.27
2019-06-27T08:10:02.844Z,4.70
2019-06-27T08:13:09.832Z,4.83
2019-06-27T08:16:16.823Z,4.80
2019-06-27T08:19:23.757Z,4.65
2019-06-27T08:22:30.753Z,4.90
2019-06-27T08:25:37.775Z,5.37
2019-06-27T08:28:44.766Z,5.00
2019-06-27T08:31:52.244Z,6.35
2019-06-27T08:34:59.216Z,4.33
2019-06-27T08:38:06.222Z,4.17
2019-06-27T08:41:14.199Z,4.70
2019-06-27T08:44:21.221Z,3.90
2019-06-27T08:47:28.225Z,3.65
2019-06-27T08:50:35.212Z,4.28
2019-06-27T08:53:42.273Z,4.10
2019-06-27T08:56:49.258Z,4.03
2019-06-27T08:59:56.256Z,4.20
2019-06-27T09:03:03.271Z,4.05
2019-06-27T09:06:10.276Z,4.22
2019-06-27T09:09:17.288Z,3.75
2019-06-27T09:12:24.258Z,4.00
2019-06-27T09:15:31.260Z,3.60
2019-06-27T09:18:38.246Z,4.15
2019-06-27T09:21:45.217Z,4.08
2019-06-27T09:24:52.215Z,3.98
2019-06-27T09:27:59.223Z,3.52
2019-06-27T09:31:06.202Z,4.12
2019-06-27T09:34:13.207Z,4.28
2019-06-27T09:37:20.245Z,3.80
2019-06-27T09:40:27.367Z,3.87
2019-06-27T09:43:34.338Z,3.22
2019-06-27T09:46:41.329Z,4.10
2019-06-27T09:49:48.322Z,3.22
2019-06-27T09:52:55.338Z,3.35
2019-06-27T09:56:02.448Z,3.20
2019-06-27T09:59:09.475Z,3.30
2019-06-27T10:02:16.526Z,3.20
2019-06-27T10:05:23.545Z,3.17
2019-06-27T10:08:30.601Z,3.65
2019-06-27T10:11:40.457Z,3.40
2019-06-27T10:14:47.490Z,2.55
2019-06-27T10:17:54.443Z,2.58
2019-06-27T10:21:01.473Z,3.25
2019-06-27T10:24:08.435Z,2.55
2019-06-27T10:27:15.444Z,2.15
2019-06-27T10:30:24.032Z,2.70
2019-06-27T10:33:49.095Z,2.25
2019-06-27T10:36:56.150Z,2.37
2019-06-27T10:40:03.164Z,3.42
2019-06-27T10:43:10.133Z,3.02
2019-06-27T10:46:17.102Z,2.27
2019-06-27T10:49:24.113Z,2.52
2019-06-27T10:52:31.217Z,2.95
2019-06-27T10:55:38.242Z,3.33
2019-06-27T10:58:45.261Z,2.33
2019-06-27T11:01:52.235Z,2.95
2019-06-27T11:04:59.194Z,2.90
2019-06-27T11:08:06.497Z,3.10
2019-06-27T11:11:13.467Z,2.70
2019-06-27T11:14:20.478Z,2.70
2019-06-27T11:17:27.740Z,3.20
2019-06-27T11:20:34.709Z,2.45
2019-06-27T11:23:41.713Z,2.20
2019-06-27T11:26:49.552Z,2.33
2019-06-27T11:29:56.573Z,2.67
2019-06-27T11:33:03.570Z,2.30
2019-06-27T11:36:10.534Z,3.80
2019-06-27T11:39:17.514Z,2.53
2019-06-27T11:42:24.497Z,2.50
2019-06-27T11:45:31.698Z,2.30
2019-06-27T11:48:38.820Z,2.40
2019-06-27T11:51:45.784Z,2.00
2019-06-27T11:54:52.830Z,2.30
2019-06-27T11:57:59.789Z,2.33
2019-06-27T12:01:06.776Z,2.20
2019-06-27T12:04:13.717Z,2.10
2019-06-27T12:07:20.744Z,2.30
2019-06-27T12:10:28.006Z,2.33
2019-06-27T12:13:35.042Z,2.97
2019-06-27T12:16:42.069Z,3.00
2019-06-27T12:19:49.154Z,3.07
2019-06-27T12:22:56.310Z,3.17
2019-06-27T12:26:03.256Z,2.43
2019-06-27T12:29:10.225Z,2.73
2019-06-27T12:32:17.244Z,3.20
2019-06-27T12:35:24.222Z,2.80
2019-06-27T12:38:31.211Z,2.80
2019-06-27T12:41:38.186Z,2.20
2019-06-27T12:44:45.194Z,2.60
2019-06-27T12:47:52.220Z,2.57
2019-06-27T12:50:59.237Z,2.67
2019-06-27T12:54:06.273Z,2.17
2019-06-27T12:57:13.252Z,2.30
2019-06-27T13:00:20.333Z,2.10
2019-06-27T13:03:27.364Z,2.40
2019-06-27T13:06:34.360Z,2.07
2019-06-27T13:09:41.434Z,2.53
2019-06-27T13:12:48.462Z,2.60
2019-06-27T13:15:55.455Z,2.43
2019-06-27T13:19:02.536Z,2.17
2019-06-27T13:22:09.537Z,2.33
2019-06-27T13:25:16.558Z,2.23
2019-06-27T13:28:23.559Z,2.90
2019-06-27T13:31:30.573Z,2.47
2019-06-27T13:34:40.894Z,2.50
2019-06-27T13:37:46.125Z,2.30
2019-06-27T13:40:53.096Z,2.60
2019-06-27T13:44:00.138Z,2.30
2019-06-27T13:47:07.115Z,1.43
2019-06-27T13:50:14.276Z,2.33
2019-06-27T13:53:21.353Z,2.73
2019-06-27T13:56:28.469Z,2.53
2019-06-27T13:59:35.444Z,2.40
2019-06-27T14:02:42.455Z,2.47
2019-06-27T14:05:49.421Z,2.80
2019-06-27T14:08:56.392Z,2.07
2019-06-27T14:12:03.433Z,2.57
2019-06-27T14:15:10.663Z,2.17
2019-06-27T14:18:19.257Z,2.50
2019-06-27T14:21:26.735Z,2.40
2019-06-27T14:24:33.797Z,2.50
2019-06-27T14:27:40.832Z,2.10
2019-06-27T14:30:47.847Z,2.20
2019-06-27T14:33:54.794Z,2.40
2019-06-27T14:37:01.816Z,2.50
2019-06-27T14:40:09.778Z,2.27
2019-06-27T14:43:16.777Z,2.10
2019-06-27T14:46:23.810Z,2.47
2019-06-27T14:49:30.826Z,2.63
2019-06-27T14:52:37.887Z,2.13
2019-06-27T14:55:44.891Z,2.57
2019-06-27T14:58:51.890Z,2.67
2019-06-27T15:01:58.949Z,3.10
2019-06-27T15:05:07.185Z,2.80
2019-06-27T15:08:14.160Z,2.27
2019-06-27T15:11:21.188Z,2.53
2019-06-27T15:14:28.145Z,3.30
2019-06-27T15:17:35.196Z,2.77
2019-06-27T15:20:42.189Z,3.20
2019-06-27T15:23:49.182Z,2.73
2019-06-27T15:26:56.186Z,3.23
2019-06-27T15:30:03.221Z,2.80
2019-06-27T15:33:10.206Z,3.63
2019-06-27T15:36:17.216Z,3.40
2019-06-27T15:39:24.201Z,2.50
2019-06-27T15:42:31.262Z,2.77
2019-06-27T15:45:38.246Z,2.90
2019-06-27T15:48:45.255Z,2.70
2019-06-27T15:51:52.271Z,2.60
2019-06-27T15:54:59.253Z,2.30
2019-06-27T15:58:06.300Z,2.80
2019-06-27T16:01:13.314Z,2.90
2019-06-27T16:04:30.682Z,2.70
2019-06-27T16:07:28.958Z,2.97
2019-06-27T16:10:35.990Z,2.97
2019-06-27T16:13:43.027Z,2.97
2019-06-27T16:16:49.952Z,2.80
2019-06-27T16:19:56.967Z,2.90
2019-06-27T16:23:03.975Z,2.37
2019-06-27T16:26:11.008Z,2.73
2019-06-27T16:29:17.992Z,2.70
2019-06-27T16:32:24.995Z,2.53
2019-06-27T16:35:31.991Z,2.83
2019-06-27T16:38:39.018Z,2.90
2019-06-27T16:41:45.991Z,2.63
2019-06-27T16:44:52.971Z,2.80
2019-06-27T16:48:00.075Z,2.40
2019-06-27T16:51:08.354Z,2.80
2019-06-27T16:54:15.400Z,2.63
2019-06-27T16:57:22.408Z,2.40
2019-06-27T17:00:29.416Z,2.50
2019-06-27T17:03:36.431Z,2.90
2019-06-27T17:06:43.436Z,2.50
2019-06-27T17:09:50.448Z,2.73
2019-06-27T17:12:57.497Z,2.10
2019-06-27T17:16:04.506Z,2.97
2019-06-27T17:19:11.538Z,2.73
2019-06-27T17:22:18.504Z,2.47
2019-06-27T17:25:25.507Z,2.77
2019-06-27T17:28:35.150Z,3.33
2019-06-27T17:31:41.235Z,2.60
2019-06-27T17:34:48.292Z,2.57
2019-06-27T17:37:55.298Z,2.40
2019-06-27T17:41:02.285Z,2.90
2019-06-27T17:44:09.280Z,2.70
2019-06-27T17:47:16.267Z,2.00
2019-06-27T17:50:23.225Z,2.60
2019-06-27T17:53:30.232Z,2.23
2019-06-27T17:56:37.278Z,2.43
2019-06-27T17:59:44.385Z,2.43
2019-06-27T18:02:51.482Z,2.30
2019-06-27T18:05:58.508Z,2.30
2019-06-27T18:09:05.743Z,2.30
2019-06-27T18:12:12.711Z,2.40
2019-06-27T18:15:19.804Z,2.93
2019-06-27T18:18:26.923Z,2.47
2019-06-27T18:21:33.962Z,2.80
2019-06-27T18:24:41.805Z,2.93
2019-06-27T18:27:48.903Z,2.93
2019-06-27T18:30:55.959Z,2.83
2019-06-27T18:34:03.006Z,2.03
2019-06-27T18:37:10.032Z,2.90
2019-06-27T18:40:17.265Z,2.97
2019-06-27T18:43:24.448Z,2.90
2019-06-27T18:46:31.417Z,3.00
2019-06-27T18:49:38.482Z,2.60
2019-06-27T18:52:45.512Z,2.70
2019-06-27T18:55:52.568Z,2.67
2019-06-27T18:58:59.638Z,5.80
2019-06-27T19:02:06.650Z,4.93
2019-06-27T19:05:13.629Z,3.67
2019-06-27T19:08:20.631Z,7.40
2019-06-27T19:11:27.748Z,5.10
2019-06-27T19:14:34.787Z,5.00
2019-06-27T19:17:41.798Z,3.20
2019-06-27T19:20:52.454Z,4.60
2019-06-27T19:24:27.307Z,5.17
2019-06-27T19:27:34.307Z,3.33
2019-06-27T19:30:41.414Z,3.37
2019-06-27T19:33:48.428Z,3.63
2019-06-27T19:36:55.450Z,3.43
2019-06-27T19:40:02.451Z,3.40
2019-06-27T19:43:09.440Z,3.60
2019-06-27T19:46:16.546Z,4.13
2019-06-27T19:49:23.547Z,3.73
2019-06-27T19:52:30.566Z,4.00
2019-06-27T19:55:37.873Z,3.80
2019-06-27T19:58:44.917Z,4.73
2019-06-27T20:01:51.950Z,3.97
2019-06-27T20:04:58.901Z,4.10
2019-06-27T20:08:18.291Z,4.97
2019-06-27T20:11:14.582Z,4.67
2019-06-27T20:14:21.542Z,4.87
2019-06-27T20:17:28.631Z,4.60
2019-06-27T20:20:35.639Z,4.50
2019-06-27T20:23:42.638Z,4.93
2019-06-27T20:26:49.593Z,4.00
2019-06-27T20:29:56.580Z,4.00
2019-06-27T20:33:03.595Z,4.63
2019-06-27T20:36:10.588Z,4.23
2019-06-27T20:39:17.630Z,4.23
2019-06-27T20:42:24.578Z,4.00
2019-06-27T20:45:31.528Z,4.53
2019-06-27T20:48:38.512Z,4.10
2019-06-27T20:51:45.479Z,4.40
2019-06-27T20:54:52.479Z,5.53
2019-06-27T20:57:59.446Z,9.17
2019-06-27T21:01:06.516Z,5.30
2019-06-27T21:04:13.514Z,4.63
2019-06-27T21:07:20.494Z,6.83
2019-06-27T21:10:27.503Z,4.57
2019-06-27T21:13:34.528Z,4.50
2019-06-27T21:16:41.462Z,4.20
2019-06-27T21:19:48.461Z,4.27
2019-06-27T21:22:55.478Z,3.40
2019-06-27T21:26:02.455Z,3.47
2019-06-27T21:29:09.471Z,3.97
2019-06-27T21:32:30.592Z,3.17
2019-06-27T21:35:25.058Z,3.10
2019-06-27T21:38:32.092Z,3.30
2019-06-27T21:41:39.108Z,3.20
2019-06-27T21:44:46.157Z,3.10
2019-06-27T21:47:53.175Z,3.00
2019-06-27T21:51:00.155Z,2.73
2019-06-27T21:54:07.317Z,2.93
2019-06-27T21:57:14.453Z,2.60
2019-06-27T22:00:22.517Z,3.47
2019-06-27T22:03:29.594Z,3.10
2019-06-27T22:06:36.618Z,4.67
2019-06-27T22:09:43.576Z,4.13
2019-06-27T22:12:50.608Z,4.17
2019-06-27T22:15:57.604Z,3.63
2019-06-27T22:19:05.016Z,3.50
2019-06-27T22:22:11.990Z,3.40
2019-06-27T22:25:19.078Z,3.37
2019-06-27T22:28:26.095Z,3.10
2019-06-27T22:31:33.148Z,2.97
2019-06-27T22:34:40.188Z,3.30
2019-06-27T22:38:04.806Z,2.83
2019-06-27T22:41:29.099Z,2.63
2019-06-27T22:44:53.682Z,2.57
2019-06-27T22:48:14.547Z,3.33
2019-06-27T22:51:49.431Z,2.47
2019-06-27T22:54:57.742Z,2.40
2019-06-27T22:58:04.948Z,2.67
2019-06-27T23:01:11.928Z,2.80
2019-06-27T23:04:18.878Z,3.17
2019-06-27T23:07:25.886Z,3.63
2019-06-27T23:10:32.870Z,2.70
2019-06-27T23:13:40.506Z,3.03
2019-06-27T23:16:47.526Z,2.53
2019-06-27T23:19:54.469Z,3.00
2019-06-27T23:23:01.450Z,2.97
2019-06-27T23:26:08.431Z,2.63
2019-06-27T23:29:15.461Z,2.70
2019-06-27T23:32:22.395Z,2.53
2019-06-27T23:35:29.382Z,3.20
2019-06-27T23:38:36.411Z,2.80
2019-06-27T23:41:43.419Z,2.50
2019-06-27T23:44:50.385Z,2.57
2019-06-27T23:47:57.374Z,2.50
2019-06-27T23:51:04.460Z,2.60
2019-06-27T23:54:11.460Z,2.30
2019-06-27T23:57:18.441Z,2.13
